Time;durP1;ratioP1;P1;durP2;ratioP2;P2;SDS_P1;SDS_P2;PMS_P1;PMS_P2;Temp;Humidity;BMP_temperature;BMP_pressure;BME280_temperature;BME280_humidity;BME280_pressure;Samples;Min_cycle;Max_cycle;Signal;HPM_P1;HPM_P2
2021/06/15 00:02:10;;;;;;;6.83;4.53;;;19.60;70.60;;;;;;4976838;28;20479;-87
2021/06/15 00:04:36;;;;;;;5.23;4.60;;;19.60;70.50;;;;;;4982590;28;20468;-87
2021/06/15 00:07:03;;;;;;;5.60;5.10;;;19.60;70.40;;;;;;4981055;28;20536;-87
2021/06/15 00:09:30;;;;;;;6.53;4.67;;;19.60;70.40;;;;;;4997858;28;21140;-87
2021/06/15 00:11:57;;;;;;;5.57;4.80;;;19.50;70.10;;;;;;4979108;28;20473;-88
2021/06/15 00:14:24;;;;;;;5.40;4.40;;;19.60;70.20;;;;;;4977243;28;20485;-88
2021/06/15 00:17:20;;;;;;;5.07;4.57;;;19.60;69.90;;;;;;4980082;28;20849;-88
2021/06/15 00:19:47;;;;;;;6.80;4.33;;;19.40;70.00;;;;;;4989836;28;20940;-88
2021/06/15 00:22:13;;;;;;;4.67;4.27;;;19.40;70.10;;;;;;4973633;28;20473;-88
2021/06/15 00:24:46;;;;;;;5.00;4.50;;;19.30;70.10;;;;;;4980813;28;20464;-88
2021/06/15 00:27:13;;;;;;;4.80;4.30;;;19.30;70.20;;;;;;4991136;28;20466;-88
2021/06/15 00:30:16;;;;;;;4.73;4.33;;;19.40;69.60;;;;;;4974153;28;20472;-87
2021/06/15 00:33:50;;;;;;;5.80;5.30;;;19.30;69.60;;;;;;4993953;28;20539;-87
2021/06/15 00:36:17;;;;;;;5.50;4.60;;;19.20;69.30;;;;;;4916493;29;20457;-87
2021/06/15 00:39:05;;;;;;;6.53;5.93;;;19.20;69.60;;;;;;4981412;28;20557;-87
2021/06/15 00:41:34;;;;;;;5.60;4.60;;;19.10;69.90;;;;;;4992431;28;20897;-87
2021/06/15 00:44:01;;;;;;;5.83;4.60;;;19.10;70.10;;;;;;4975959;28;20488;-87
2021/06/15 00:46:28;;;;;;;7.27;4.70;;;19.00;70.20;;;;;;4978836;28;20457;-87
2021/06/15 00:48:55;;;;;;;4.83;4.33;;;19.00;70.40;;;;;;4978040;28;20477;-88
2021/06/15 00:51:45;;;;;;;6.93;4.57;;;19.00;70.60;;;;;;4990854;28;20450;-87
2021/06/15 00:54:28;;;;;;;4.80;4.40;;;19.00;70.80;;;;;;4950616;28;21013;-87
2021/06/15 00:56:56;;;;;;;5.50;4.50;;;18.90;70.80;;;;;;4987577;28;20465;-87
2021/06/15 00:59:23;;;;;;;6.10;4.47;;;18.90;71.20;;;;;;4994922;28;20465;-87
2021/06/15 01:01:53;;;;;;;6.37;4.60;;;18.90;71.10;;;;;;4978829;28;20483;-87
2021/06/15 01:04:20;;;;;;;7.03;5.10;;;19.00;71.30;;;;;;4996279;28;20449;-88
2021/06/15 01:07:00;;;;;;;5.60;4.60;;;18.90;71.30;;;;;;4974482;28;20547;-87
2021/06/15 01:10:04;;;;;;;8.63;4.53;;;18.90;71.40;;;;;;4975925;28;20452;-87
2021/06/15 01:12:57;;;;;;;4.40;4.00;;;18.80;71.50;;;;;;4977220;28;20473;-87
2021/06/15 01:15:45;;;;;;;4.40;4.00;;;18.80;71.60;;;;;;4973067;28;20488;-88
2021/06/15 01:18:17;;;;;;;5.67;4.70;;;18.80;71.70;;;;;;4975103;28;20898;-87
2021/06/15 01:20:52;;;;;;;5.07;4.17;;;18.80;71.80;;;;;;4982342;28;20472;-87
2021/06/15 01:30:17;;;;;;;4.23;3.83;;;18.70;71.70;;;;;;4999230;28;20815;-87
2021/06/15 01:33:16;;;;;;;8.67;5.50;;;18.60;71.60;;;;;;4997769;28;20468;-87
2021/06/15 01:43:42;;;;;;;4.17;3.77;;;18.70;71.30;;;;;;4955730;28;21067;-87
2021/06/15 01:50:01;;;;;;;8.20;4.63;;;18.50;71.50;;;;;;4988991;28;20452;-87
2021/06/15 01:52:51;;;;;;;6.50;4.60;;;18.50;71.70;;;;;;4991430;28;20958;-87
2021/06/15 01:55:22;;;;;;;4.27;3.87;;;18.40;71.80;;;;;;4981210;28;20481;-87
2021/06/15 01:57:50;;;;;;;6.90;5.10;;;18.40;71.70;;;;;;4981500;28;20480;-87
2021/06/15 02:00:18;;;;;;;6.20;4.20;;;18.40;71.70;;;;;;4995523;28;20804;-87
2021/06/15 02:02:48;;;;;;;6.10;4.43;;;18.30;71.90;;;;;;4996142;28;20473;-88
2021/06/15 02:08:50;;;;;;;5.80;4.30;;;18.30;72.30;;;;;;4877270;29;20555;-87
2021/06/15 02:11:18;;;;;;;4.63;4.10;;;18.20;72.30;;;;;;4935814;29;20457;-87
2021/06/15 02:14:38;;;;;;;4.30;3.97;;;18.20;72.40;;;;;;4935765;29;20479;-87
2021/06/15 02:17:07;;;;;;;6.97;4.10;;;18.20;72.80;;;;;;4927322;29;20515;-88
2021/06/15 02:19:40;;;;;;;6.10;5.07;;;18.20;73.20;;;;;;4934864;29;22140;-87
2021/06/15 02:22:10;;;;;;;5.17;4.53;;;18.20;73.20;;;;;;4937683;29;20479;-87
2021/06/15 02:24:45;;;;;;;5.53;4.40;;;18.20;73.30;;;;;;4921074;29;20970;-87
2021/06/15 02:28:13;;;;;;;6.20;4.53;;;18.20;73.40;;;;;;4933341;29;20504;-87
2021/06/15 02:30:39;;;;;;;6.57;4.73;;;18.20;73.60;;;;;;4918677;29;21044;-87
2021/06/15 02:33:24;;;;;;;6.53;5.40;;;18.20;73.50;;;;;;4936462;29;20900;-87
2021/06/15 02:35:58;;;;;;;8.80;4.33;;;18.20;73.50;;;;;;4917416;29;20874;-87
2021/06/15 02:39:08;;;;;;;7.30;4.83;;;18.20;73.50;;;;;;4934987;29;20466;-87
2021/06/15 02:41:37;;;;;;;4.67;3.90;;;18.20;73.50;;;;;;4909394;29;20480;-87
2021/06/15 02:44:44;;;;;;;5.77;5.20;;;18.20;73.50;;;;;;4933431;29;20487;-87
2021/06/15 02:47:13;;;;;;;7.03;5.07;;;18.20;73.60;;;;;;4995477;28;20475;-87
2021/06/15 02:49:53;;;;;;;7.77;4.57;;;18.10;73.60;;;;;;4976771;28;20461;-87
2021/06/15 02:52:45;;;;;;;6.53;4.77;;;18.10;73.60;;;;;;4975416;28;20855;-87
2021/06/15 02:55:17;;;;;;;7.63;4.63;;;18.10;73.70;;;;;;4981516;28;21033;-87
2021/06/15 02:57:43;;;;;;;6.03;4.53;;;18.10;73.70;;;;;;4994778;28;20457;-87
2021/06/15 03:00:11;;;;;;;5.00;4.43;;;18.10;73.60;;;;;;4973604;28;20993;-87
2021/06/15 03:03:18;;;;;;;4.77;4.37;;;18.10;73.70;;;;;;4979756;28;20466;-87
2021/06/15 03:05:57;;;;;;;4.77;4.03;;;18.00;73.80;;;;;;4991754;28;20458;-87
2021/06/15 03:08:44;;;;;;;4.90;4.40;;;18.10;73.80;;;;;;4992377;28;21278;-87
2021/06/15 03:11:41;;;;;;;5.57;4.70;;;18.00;73.70;;;;;;4992168;28;20461;-87
2021/06/15 03:15:03;;;;;;;5.60;3.97;;;18.00;73.70;;;;;;4992153;28;20469;-87
2021/06/15 03:18:08;;;;;;;5.10;4.70;;;18.00;73.90;;;;;;4961341;28;20825;-87
2021/06/15 03:20:36;;;;;;;6.43;5.37;;;17.90;74.00;;;;;;4988892;28;20474;-87
2021/06/15 03:23:25;;;;;;;5.20;4.33;;;17.90;74.20;;;;;;4991011;28;20465;-87
2021/06/15 03:25:52;;;;;;;8.03;5.37;;;17.90;74.40;;;;;;4976607;28;20459;-87
2021/06/15 03:28:25;;;;;;;4.80;4.30;;;17.90;74.50;;;;;;4997597;28;20460;-86
2021/06/15 03:31:33;;;;;;;7.57;5.17;;;17.90;74.60;;;;;;4989261;28;20971;-87
2021/06/15 03:34:02;;;;;;;6.83;4.83;;;17.90;74.60;;;;;;4982495;28;20461;-87
2021/06/15 03:36:45;;;;;;;5.03;4.43;;;17.90;74.70;;;;;;4997125;28;20850;-87
2021/06/15 03:39:59;;;;;;;6.60;4.87;;;17.90;74.80;;;;;;4999824;28;20942;-87
2021/06/15 03:42:29;;;;;;;4.80;3.80;;;17.90;74.70;;;;;;4960985;28;21020;-87
2021/06/15 03:45:03;;;;;;;5.03;4.43;;;17.80;74.80;;;;;;4974659;28;21004;-87
2021/06/15 03:47:33;;;;;;;6.20;4.93;;;17.90;74.80;;;;;;4994396;28;20544;-87
2021/06/15 03:50:00;;;;;;;5.27;4.57;;;17.90;74.80;;;;;;4977978;28;20461;-87
2021/06/15 03:52:30;;;;;;;7.90;5.07;;;17.90;74.70;;;;;;4993757;28;20470;-88
2021/06/15 03:54:57;;;;;;;5.43;4.80;;;17.90;74.70;;;;;;4982205;28;20488;-87
2021/06/15 03:58:07;;;;;;;5.50;4.50;;;17.80;74.70;;;;;;4995144;28;20471;-87
2021/06/15 04:00:36;;;;;;;6.80;4.77;;;17.80;74.90;;;;;;4993725;28;20476;-87
2021/06/15 04:03:58;;;;;;;6.50;5.97;;;17.80;74.80;;;;;;4981521;28;20461;-87
2021/06/15 04:10:25;;;;;;;5.07;4.67;;;17.80;74.90;;;;;;4972357;28;20861;-87
2021/06/15 04:17:02;;;;;;;6.63;5.00;;;17.90;74.90;;;;;;4993466;28;20496;-86
2021/06/15 04:19:38;;;;;;;6.30;3.73;;;17.90;74.60;;;;;;4980907;28;20475;-87
2021/06/15 04:22:08;;;;;;;4.70;4.30;;;17.90;74.60;;;;;;4976225;28;20475;-87
2021/06/15 04:24:35;;;;;;;7.43;4.73;;;17.90;74.60;;;;;;4974887;28;20943;-88
2021/06/15 04:27:03;;;;;;;5.90;4.27;;;17.90;74.70;;;;;;4995638;28;20476;-87
2021/06/15 04:29:29;;;;;;;9.30;4.83;;;17.90;74.70;;;;;;4977891;28;20457;-87
2021/06/15 04:32:10;;;;;;;6.27;4.33;;;17.90;74.90;;;;;;4977013;28;20478;-87
2021/06/15 04:34:43;;;;;;;6.60;4.93;;;18.00;74.80;;;;;;4977994;28;20453;-87
2021/06/15 04:37:12;;;;;;;5.90;4.90;;;18.00;74.60;;;;;;4998368;28;20453;-87
2021/06/15 04:39:51;;;;;;;9.40;5.23;;;18.10;74.50;;;;;;4980444;28;20464;-87
2021/06/15 04:42:30;;;;;;;7.13;5.30;;;18.10;74.40;;;;;;4975377;28;20483;-88
2021/06/15 04:44:58;;;;;;;6.73;5.47;;;18.20;74.70;;;;;;4978349;28;20463;-88
2021/06/15 04:48:06;;;;;;;5.90;5.40;;;18.20;74.90;;;;;;4977497;28;20939;-87
2021/06/15 04:50:33;;;;;;;5.37;4.87;;;18.30;74.90;;;;;;4970357;28;20465;-87
2021/06/15 04:53:03;;;;;;;6.27;5.67;;;18.40;74.70;;;;;;4995083;28;20481;-88
2021/06/15 04:55:36;;;;;;;4.80;4.40;;;18.40;74.60;;;;;;4978203;28;20536;-88
2021/06/15 04:58:07;;;;;;;7.00;4.93;;;18.30;74.50;;;;;;4992789;28;20465;-87
2021/06/15 05:00:36;;;;;;;7.00;5.60;;;18.40;74.20;;;;;;4992179;28;20463;-87
2021/06/15 05:03:04;;;;;;;5.77;5.17;;;18.50;74.40;;;;;;4999640;28;21049;-87
2021/06/15 05:09:13;;;;;;;11.07;6.00;;;18.60;74.20;;;;;;4953493;28;20520;-87
2021/06/15 05:12:01;;;;;;;11.50;5.20;;;18.60;73.70;;;;;;4990377;28;20461;-87
2021/06/15 05:18:16;;;;;;;9.70;4.57;;;18.60;74.30;;;;;;4957090;28;20959;-87
2021/06/15 05:20:42;;;;;;;5.57;4.33;;;18.60;74.10;;;;;;4976773;28;20927;-87
2021/06/15 05:23:18;;;;;;;7.87;4.30;;;18.60;74.00;;;;;;4978501;28;20485;-87
2021/06/15 05:25:47;;;;;;;7.27;5.73;;;18.70;73.90;;;;;;4995505;28;20460;-87
2021/06/15 05:28:14;;;;;;;7.07;5.03;;;18.70;73.80;;;;;;4977310;28;20974;-87
2021/06/15 05:30:41;;;;;;;4.90;4.40;;;18.80;73.40;;;;;;4979464;28;20480;-88
2021/06/15 05:33:11;;;;;;;6.03;4.97;;;18.80;73.20;;;;;;4989148;28;20470;-88
2021/06/15 05:35:40;;;;;;;7.10;4.97;;;18.80;73.20;;;;;;4977064;28;20492;-87
2021/06/15 05:38:10;;;;;;;7.50;4.97;;;18.80;73.50;;;;;;4975962;28;20460;-87
2021/06/15 05:41:03;;;;;;;4.90;4.20;;;18.90;73.20;;;;;;4995738;28;20473;-88
2021/06/15 05:43:30;;;;;;;9.17;5.20;;;19.00;73.20;;;;;;4971898;28;21014;-87
2021/06/15 05:45:57;;;;;;;9.00;5.23;;;19.00;73.20;;;;;;4990427;28;20493;-87
2021/06/15 05:49:03;;;;;;;8.73;4.87;;;19.00;73.40;;;;;;4999754;28;20462;-87
2021/06/15 05:51:31;;;;;;;6.20;5.63;;;19.10;73.20;;;;;;4952478;28;20824;-87
2021/06/15 05:54:02;;;;;;;8.70;5.40;;;19.20;73.10;;;;;;4997291;28;20473;-87
2021/06/15 05:56:33;;;;;;;6.30;5.10;;;19.20;72.70;;;;;;4995661;28;20484;-87
2021/06/15 05:58:59;;;;;;;6.87;4.83;;;19.30;72.10;;;;;;4980507;28;20470;-87
2021/06/15 06:01:57;;;;;;;6.50;4.67;;;19.40;71.40;;;;;;4975335;28;20991;-87
2021/06/15 06:04:28;;;;;;;9.07;5.30;;;19.60;71.60;;;;;;4991979;28;20469;-88
2021/06/15 06:09:42;;;;;;;7.63;5.13;;;19.80;70.10;;;;;;4990333;28;20536;-87
2021/06/15 06:12:10;;;;;;;6.00;4.27;;;19.80;70.10;;;;;;4984452;28;20850;-87
2021/06/15 06:14:59;;;;;;;8.13;4.37;;;19.90;70.20;;;;;;4984091;28;20975;-87
2021/06/15 06:17:26;;;;;;;8.73;4.97;;;20.00;70.20;;;;;;4991202;28;20853;-87
2021/06/15 06:20:08;;;;;;;8.43;4.67;;;20.00;70.10;;;;;;4976472;28;20800;-87
2021/06/15 06:22:38;;;;;;;8.03;5.50;;;20.20;68.80;;;;;;4974142;28;20469;-87
2021/06/15 06:25:08;;;;;;;9.10;4.23;;;20.30;68.50;;;;;;4976343;28;20835;-87
2021/06/15 06:28:02;;;;;;;6.90;4.77;;;20.40;68.40;;;;;;4978418;28;20453;-87
2021/06/15 06:30:29;;;;;;;6.00;4.10;;;20.50;68.00;;;;;;4994681;28;20465;-87
2021/06/15 06:32:55;;;;;;;6.20;4.50;;;20.50;67.10;;;;;;4977328;28;20843;-87
2021/06/15 06:35:29;;;;;;;6.00;4.30;;;20.70;66.50;;;;;;4975745;28;20469;-88
2021/06/15 06:37:56;;;;;;;6.70;4.53;;;20.80;66.90;;;;;;4980467;28;21063;-87
2021/06/15 06:40:25;;;;;;;6.10;4.73;;;20.90;66.80;;;;;;4993279;28;20507;-87
2021/06/15 06:42:52;;;;;;;6.13;4.60;;;21.00;67.10;;;;;;4995098;28;20909;-87
2021/06/15 06:45:19;;;;;;;17.23;5.80;;;21.10;66.90;;;;;;4976462;28;20469;-87
2021/06/15 06:48:34;;;;;;;6.80;4.73;;;21.30;66.40;;;;;;4986913;28;20553;-86
2021/06/15 06:51:01;;;;;;;6.47;5.17;;;21.50;65.60;;;;;;4980429;28;20457;-86
2021/06/15 06:53:28;;;;;;;5.77;5.17;;;21.60;65.00;;;;;;4991572;28;20462;-87
2021/06/15 06:56:10;;;;;;;4.80;4.40;;;21.70;65.50;;;;;;4974808;28;20869;-87
2021/06/15 06:58:36;;;;;;;7.80;5.33;;;21.80;65.50;;;;;;4973823;28;20473;-86
2021/06/15 07:01:05;;;;;;;5.33;4.43;;;21.90;65.30;;;;;;4992064;28;22160;-87
2021/06/15 07:03:32;;;;;;;6.67;4.43;;;22.00;65.10;;;;;;4994848;28;20538;-86
2021/06/15 07:06:01;;;;;;;8.20;4.90;;;22.10;64.70;;;;;;4974777;28;20441;-86
2021/06/15 07:08:37;;;;;;;7.03;4.40;;;22.20;64.80;;;;;;4991501;28;20520;-87
2021/06/15 07:11:04;;;;;;;6.57;5.90;;;22.40;64.60;;;;;;4993585;28;20456;-86
2021/06/15 07:13:31;;;;;;;6.17;4.30;;;22.50;63.90;;;;;;4998453;28;20826;-87
2021/06/15 07:15:57;;;;;;;7.80;5.07;;;22.70;63.90;;;;;;4973974;28;20489;-86
2021/06/15 07:18:24;;;;;;;4.70;4.30;;;22.80;63.50;;;;;;4978096;28;20445;-87
2021/06/15 07:20:51;;;;;;;6.17;4.40;;;22.90;62.90;;;;;;4992772;28;20453;-86
2021/06/15 07:23:24;;;;;;;7.00;5.50;;;23.00;62.50;;;;;;5000700;28;20456;-86
2021/06/15 07:25:55;;;;;;;8.53;5.27;;;23.10;61.70;;;;;;4976358;28;20448;-86
2021/06/15 07:28:22;;;;;;;9.20;4.90;;;23.20;61.40;;;;;;4994589;28;20453;-86
2021/06/15 07:30:49;;;;;;;7.33;4.43;;;23.30;61.50;;;;;;4976800;28;20981;-87
2021/06/15 07:33:16;;;;;;;6.20;4.50;;;23.50;61.20;;;;;;4971206;28;20614;-86
2021/06/15 07:35:42;;;;;;;7.03;4.70;;;23.60;60.60;;;;;;4973818;28;20462;-86
2021/06/15 07:38:12;;;;;;;6.10;4.40;;;23.80;59.60;;;;;;4996334;28;20540;-87
2021/06/15 07:40:39;;;;;;;7.87;4.80;;;23.90;59.20;;;;;;5000886;28;20457;-86
2021/06/15 07:43:06;;;;;;;7.27;4.30;;;24.10;58.80;;;;;;4973624;28;20993;-86
2021/06/15 07:45:35;;;;;;;8.03;4.80;;;24.30;58.40;;;;;;4973846;28;20481;-86
2021/06/15 07:48:03;;;;;;;9.57;4.77;;;24.50;58.70;;;;;;4991134;28;20976;-87
2021/06/15 07:50:30;;;;;;;5.77;4.60;;;24.60;59.10;;;;;;4978670;28;20809;-86
2021/06/15 08:04:16;;;;;;;7.70;4.67;;;25.10;58.10;;;;;;4921271;29;20944;-87
2021/06/15 08:06:43;;;;;;;7.10;5.07;;;25.20;58.50;;;;;;4936448;28;20473;-87
2021/06/15 08:09:10;;;;;;;8.13;5.40;;;25.40;57.90;;;;;;4990920;28;20869;-87
2021/06/15 08:12:20;;;;;;;8.40;4.97;;;25.50;56.50;;;;;;4990119;28;20461;-87
2021/06/15 08:14:58;;;;;;;9.80;4.90;;;25.70;55.80;;;;;;4989839;28;20472;-86
2021/06/15 08:17:28;;;;;;;8.83;4.97;;;26.00;55.00;;;;;;4979330;28;20484;-86
2021/06/15 08:22:23;;;;;;;7.40;5.40;;;26.20;53.90;;;;;;5002672;28;21384;-48
2021/06/15 08:24:49;;;;;;;8.67;5.17;;;26.40;54.60;;;;;;5005045;28;20470;-48
2021/06/15 08:27:16;;;;;;;8.30;4.90;;;26.50;55.20;;;;;;4990557;28;20785;-48
2021/06/15 08:29:43;;;;;;;10.00;5.37;;;26.50;54.10;;;;;;5006304;28;21113;-48
2021/06/15 08:32:10;;;;;;;5.87;5.10;;;26.60;54.10;;;;;;4990204;28;20451;-48
2021/06/15 08:34:37;;;;;;;9.00;5.43;;;26.70;53.70;;;;;;5002823;28;20961;-48
2021/06/15 08:37:04;;;;;;;9.03;5.27;;;26.80;53.50;;;;;;5005338;28;20487;-48
2021/06/15 08:39:30;;;;;;;7.17;5.60;;;26.80;53.60;;;;;;5007207;28;20828;-49
2021/06/15 08:41:57;;;;;;;7.47;5.80;;;26.90;53.90;;;;;;5002740;28;20926;-49
2021/06/15 08:44:24;;;;;;;11.67;5.53;;;26.90;53.90;;;;;;4995174;28;20459;-49
2021/06/15 08:46:51;;;;;;;8.47;5.20;;;27.00;53.90;;;;;;5003206;28;20459;-49
2021/06/15 08:49:18;;;;;;;6.23;5.33;;;27.00;53.40;;;;;;5004765;28;20464;-49
2021/06/15 08:51:45;;;;;;;8.67;5.30;;;27.10;52.90;;;;;;4993087;28;20470;-49
2021/06/15 08:54:17;;;;;;;11.00;5.20;;;27.20;52.10;;;;;;5002714;28;20459;-49
2021/06/15 08:56:45;;;;;;;5.30;4.80;;;27.30;52.00;;;;;;4997275;28;20912;-49
2021/06/15 08:59:22;;;;;;;9.10;5.30;;;27.40;52.10;;;;;;4989415;28;20936;-49
2021/06/15 09:01:54;;;;;;;11.00;5.67;;;27.50;52.40;;;;;;5004776;28;20991;-48
2021/06/15 09:04:21;;;;;;;7.20;5.77;;;27.60;51.90;;;;;;5003621;28;20470;-49
2021/06/15 09:06:50;;;;;;;7.33;5.27;;;27.80;51.20;;;;;;5000977;28;20452;-49
2021/06/15 09:09:17;;;;;;;6.93;5.40;;;27.90;51.30;;;;;;5003048;28;20460;-49
2021/06/15 09:11:58;;;;;;;8.70;6.13;;;28.10;51.30;;;;;;5002122;28;20835;-49
2021/06/15 09:14:57;;;;;;;7.70;5.80;;;28.30;50.80;;;;;;5003661;28;20960;-48
2021/06/15 09:17:27;;;;;;;6.53;5.57;;;28.40;50.30;;;;;;4947489;28;20789;-49
2021/06/15 09:19:56;;;;;;;7.07;5.30;;;28.50;50.30;;;;;;5022248;28;21005;-49
2021/06/15 09:22:34;;;;;;;7.17;4.80;;;28.80;50.20;;;;;;5018508;28;20976;-49
2021/06/15 09:25:03;;;;;;;7.60;4.90;;;29.00;49.50;;;;;;5008550;28;20212;-50
2021/06/15 09:27:35;;;;;;;7.83;5.07;;;29.30;49.20;;;;;;5022244;28;20204;-50
2021/06/15 09:30:13;;;;;;;8.47;4.57;;;29.60;48.70;;;;;;5019908;28;20208;-49
2021/06/15 09:32:41;;;;;;;5.63;4.47;;;29.80;48.10;;;;;;5024554;28;20236;-50
2021/06/15 09:35:10;;;;;;;8.00;5.13;;;30.10;47.70;;;;;;5007308;28;20216;-49
2021/06/15 09:37:40;;;;;;;6.95;5.05;;;30.10;48.00;;;;;;5019101;28;20225;-50
2021/06/15 09:40:26;;;;;;;7.22;5.53;;;30.20;48.10;;;;;;5009445;28;20215;-50
2021/06/15 09:43:09;;;;;;;6.80;5.10;;;30.20;47.90;;;;;;5021197;28;20320;-50
2021/06/15 09:45:39;;;;;;;5.38;4.72;;;30.30;47.60;;;;;;5018249;28;20283;-50
2021/06/15 09:48:38;;;;;;;5.93;4.82;;;30.50;46.80;;;;;;5024557;28;20204;-50
2021/06/15 09:51:11;;;;;;;5.90;5.22;;;30.80;46.30;;;;;;5005558;28;20297;-50
2021/06/15 09:53:51;;;;;;;5.28;4.78;;;31.10;45.80;;;;;;5020302;28;20209;-50
2021/06/15 09:56:18;;;;;;;8.43;4.78;;;31.30;45.40;;;;;;5021575;28;20672;-50
2021/06/15 09:58:50;;;;;;;4.82;4.38;;;31.30;44.80;;;;;;5023094;28;20204;-50
2021/06/15 10:01:40;;;;;;;6.53;4.60;;;31.30;45.30;;;;;;5008913;28;20199;-50
2021/06/15 10:04:21;;;;;;;5.85;4.50;;;31.20;45.30;;;;;;5026293;28;20290;-50
2021/06/15 10:06:49;;;;;;;7.72;4.55;;;30.90;45.60;;;;;;5022202;28;20645;-50
2021/06/15 10:09:23;;;;;;;5.22;4.72;;;30.80;45.50;;;;;;5024031;28;20339;-50
2021/06/15 10:11:57;;;;;;;10.07;4.95;;;30.70;45.60;;;;;;5023718;28;20216;-50
2021/06/15 10:14:26;;;;;;;6.88;4.80;;;30.60;45.60;;;;;;5024534;28;20216;-50
2021/06/15 10:16:54;;;;;;;9.50;5.18;;;30.30;45.90;;;;;;5020372;28;20579;-49
2021/06/15 10:19:22;;;;;;;6.05;4.57;;;30.20;46.00;;;;;;5016993;28;20232;-50
2021/06/15 10:21:50;;;;;;;4.90;4.50;;;30.00;46.40;;;;;;5010887;28;20209;-49
2021/06/15 10:24:22;;;;;;;6.13;4.77;;;29.80;47.00;;;;;;5020138;28;20217;-50
2021/06/15 10:27:00;;;;;;;4.22;3.60;;;29.70;46.70;;;;;;5020796;28;20706;-50
2021/06/15 10:29:27;;;;;;;7.97;5.33;;;29.60;45.90;;;;;;5021649;28;20217;-49
2021/06/15 10:31:54;;;;;;;5.00;4.17;;;29.50;45.60;;;;;;5018658;28;20605;-49
2021/06/15 10:34:46;;;;;;;6.45;4.85;;;29.50;45.80;;;;;;5023432;28;20208;-49
2021/06/15 10:37:45;;;;;;;6.30;4.17;;;29.50;45.60;;;;;;5019786;28;20601;-50
2021/06/15 10:40:12;;;;;;;5.97;4.37;;;29.50;45.50;;;;;;4998099;28;20204;-50
2021/06/15 10:43:02;;;;;;;4.20;3.40;;;29.50;44.60;;;;;;5006614;28;20632;-50
2021/06/15 10:45:30;;;;;;;6.67;4.13;;;29.50;43.90;;;;;;5020509;28;20227;-49
2021/06/15 10:48:06;;;;;;;6.53;3.67;;;29.40;44.10;;;;;;5016611;28;20205;-49
2021/06/15 10:50:45;;;;;;;4.40;4.00;;;29.40;44.30;;;;;;5020756;28;20266;-49
2021/06/15 10:53:14;;;;;;;8.10;4.03;;;29.30;43.20;;;;;;5019020;28;20677;-49
2021/06/15 10:55:50;;;;;;;6.40;5.10;;;29.20;42.90;;;;;;5019699;28;20208;-50
2021/06/15 10:58:42;;;;;;;3.97;3.50;;;29.20;43.10;;;;;;5022690;28;20227;-50
2021/06/15 11:01:16;;;;;;;5.40;4.30;;;29.20;43.30;;;;;;5018868;28;21033;-50
2021/06/15 11:03:46;;;;;;;6.57;4.60;;;29.20;42.40;;;;;;5008493;28;20204;-50
2021/06/15 11:06:13;;;;;;;6.30;3.57;;;29.20;42.40;;;;;;5006874;28;20266;-50
2021/06/15 11:08:40;;;;;;;6.03;3.60;;;29.20;42.90;;;;;;5020394;28;20215;-49
2021/06/15 11:11:19;;;;;;;8.03;3.90;;;29.10;43.40;;;;;;5006188;28;20380;-49
2021/06/15 11:13:53;;;;;;;4.90;3.77;;;29.10;43.50;;;;;;5020223;28;20662;-49
2021/06/15 11:16:27;;;;;;;4.60;3.70;;;29.10;43.00;;;;;;5018990;28;20208;-49
2021/06/15 11:19:09;;;;;;;5.40;4.90;;;29.00;43.20;;;;;;5001812;28;20266;-49
2021/06/15 11:21:57;;;;;;;8.40;4.63;;;28.90;43.10;;;;;;5020513;28;20256;-49
2021/06/15 11:24:25;;;;;;;4.60;4.20;;;28.90;43.00;;;;;;5004750;28;20208;-49
2021/06/15 11:26:55;;;;;;;5.07;4.40;;;28.90;42.70;;;;;;5023807;28;20227;-49
2021/06/15 11:29:38;;;;;;;4.53;3.80;;;28.90;42.80;;;;;;5019578;28;20219;-49
2021/06/15 11:32:15;;;;;;;5.53;4.03;;;28.90;42.90;;;;;;5021041;28;20220;-49
2021/06/15 11:35:03;;;;;;;4.87;4.17;;;28.90;43.90;;;;;;5021525;28;20218;-49
2021/06/15 11:37:51;;;;;;;6.53;4.90;;;28.90;44.20;;;;;;5005757;28;20216;-49
2021/06/15 11:40:35;;;;;;;5.00;4.53;;;29.00;43.70;;;;;;5020046;28;20201;-48
2021/06/15 11:43:07;;;;;;;4.80;4.40;;;28.90;44.00;;;;;;5020723;28;20458;-49
2021/06/15 11:45:37;;;;;;;7.40;4.43;;;28.90;43.80;;;;;;5018796;28;20724;-48
2021/06/15 11:48:17;;;;;;;5.53;4.30;;;28.80;44.60;;;;;;5020918;28;20215;-49
2021/06/15 11:50:46;;;;;;;6.20;5.20;;;28.90;44.60;;;;;;5026132;28;20243;-49
2021/06/15 11:53:19;;;;;;;6.53;4.20;;;28.90;44.70;;;;;;5010674;28;20207;-49
2021/06/15 11:55:56;;;;;;;5.17;4.50;;;28.80;44.60;;;;;;5026320;28;20212;-49
2021/06/15 11:58:25;;;;;;;6.13;4.53;;;28.80;44.50;;;;;;5012378;28;20689;-49
2021/06/15 12:01:04;;;;;;;5.70;5.10;;;28.80;44.70;;;;;;5021788;28;20208;-48
2021/06/15 12:03:38;;;;;;;5.13;4.60;;;28.80;45.30;;;;;;5025631;28;20210;-49
2021/06/15 12:06:06;;;;;;;5.77;5.27;;;28.80;46.60;;;;;;5012148;28;20489;-49
2021/06/15 12:08:43;;;;;;;5.13;4.53;;;28.80;45.50;;;;;;5027761;28;20204;-49
2021/06/15 12:11:14;;;;;;;7.23;5.17;;;28.90;45.80;;;;;;5022797;28;20953;-49
2021/06/15 12:13:43;;;;;;;5.67;4.97;;;28.90;45.50;;;;;;5012641;28;20204;-49
2021/06/15 12:16:14;;;;;;;7.60;4.50;;;29.00;45.90;;;;;;5009828;28;20223;-49
2021/06/15 12:18:40;;;;;;;4.90;4.40;;;28.90;45.70;;;;;;5020665;28;20588;-49
2021/06/15 12:21:09;;;;;;;9.10;5.27;;;29.00;45.50;;;;;;5024686;28;20208;-50
2021/06/15 12:23:37;;;;;;;6.10;5.27;;;28.90;45.00;;;;;;5010639;28;20204;-50
2021/06/15 12:26:10;;;;;;;9.50;4.60;;;28.90;46.00;;;;;;5021945;28;20613;-49
2021/06/15 12:28:57;;;;;;;5.50;5.00;;;28.80;46.40;;;;;;5019944;28;20619;-50
2021/06/15 12:31:35;;;;;;;6.50;4.80;;;28.80;47.00;;;;;;5021807;28;20922;-49
2021/06/15 12:34:10;;;;;;;5.33;4.60;;;28.80;47.30;;;;;;5010257;28;20227;-49
2021/06/15 12:36:39;;;;;;;10.20;5.40;;;28.90;47.80;;;;;;5021159;28;20222;-49
2021/06/15 12:39:26;;;;;;;5.37;4.87;;;28.90;47.60;;;;;;5009838;28;20264;-50
2021/06/15 12:42:01;;;;;;;5.70;4.70;;;29.00;45.60;;;;;;5009191;28;20575;-50
2021/06/15 12:44:30;;;;;;;5.60;5.07;;;28.90;46.40;;;;;;5022213;28;20204;-50
2021/06/15 12:47:16;;;;;;;6.27;5.03;;;29.00;45.00;;;;;;5022541;28;20222;-50
2021/06/15 12:49:54;;;;;;;7.77;4.73;;;29.00;44.90;;;;;;5006286;28;20266;-50
2021/06/15 12:52:30;;;;;;;6.60;5.40;;;29.00;44.80;;;;;;5024673;28;20577;-50
2021/06/15 12:55:12;;;;;;;8.27;5.30;;;29.00;45.20;;;;;;5020246;28;20204;-50
2021/06/15 12:57:39;;;;;;;6.10;4.23;;;29.00;46.00;;;;;;5022194;28;21027;-50
2021/06/15 13:00:08;;;;;;;5.53;5.07;;;29.10;47.10;;;;;;5018722;28;20555;-50
2021/06/15 13:02:39;;;;;;;5.27;4.77;;;29.10;45.90;;;;;;5024596;28;20216;-50
2021/06/15 13:05:14;;;;;;;9.40;5.30;;;29.20;45.80;;;;;;5012797;28;20291;-50
2021/06/15 13:07:54;;;;;;;5.53;4.83;;;29.20;45.80;;;;;;5011447;28;20578;-50
2021/06/15 13:10:22;;;;;;;8.60;5.37;;;29.20;45.90;;;;;;5021698;28;20624;-50
2021/06/15 13:12:53;;;;;;;6.23;5.47;;;29.20;45.40;;;;;;5018643;28;20205;-50
2021/06/15 13:15:22;;;;;;;6.53;5.43;;;29.30;45.90;;;;;;5008040;28;20681;-50
2021/06/15 13:18:00;;;;;;;5.60;4.73;;;29.30;46.00;;;;;;5022467;28;21042;-50
2021/06/15 13:20:28;;;;;;;7.03;5.50;;;29.30;45.20;;;;;;5020876;28;20216;-50
2021/06/15 13:22:56;;;;;;;5.70;5.10;;;29.40;46.30;;;;;;5006850;28;20677;-50
2021/06/15 13:25:26;;;;;;;5.47;4.97;;;29.40;45.60;;;;;;5020168;28;20219;-50
2021/06/15 13:27:57;;;;;;;7.50;5.27;;;29.50;45.80;;;;;;5022543;28;20641;-50
2021/06/15 13:30:32;;;;;;;8.00;5.47;;;29.50;46.10;;;;;;5019491;28;20239;-50
2021/06/15 13:33:08;;;;;;;9.57;6.37;;;29.60;46.80;;;;;;5024662;28;20679;-50
2021/06/15 13:35:40;;;;;;;6.80;5.27;;;29.60;46.10;;;;;;5024864;28;20823;-50
2021/06/15 13:38:31;;;;;;;5.83;5.27;;;29.50;45.30;;;;;;5009956;28;20705;-50
2021/06/15 13:41:04;;;;;;;5.70;5.07;;;29.50;44.70;;;;;;5025294;28;20280;-50
2021/06/15 13:43:37;;;;;;;5.87;5.10;;;29.40;45.60;;;;;;5024200;28;20211;-50
2021/06/15 13:46:10;;;;;;;8.77;5.30;;;29.40;46.10;;;;;;5022071;28;20197;-50
2021/06/15 13:48:57;;;;;;;6.07;5.43;;;29.40;46.40;;;;;;5011845;28;20227;-50
2021/06/15 13:51:24;;;;;;;7.17;5.30;;;29.40;46.40;;;;;;5025642;28;20240;-50
2021/06/15 13:53:51;;;;;;;6.23;5.63;;;29.40;46.10;;;;;;5022547;28;20213;-50
2021/06/15 13:56:19;;;;;;;6.73;5.00;;;29.30;45.60;;;;;;5010127;28;20705;-50
2021/06/15 13:58:45;;;;;;;7.90;4.77;;;29.30;46.20;;;;;;5006573;28;20257;-50
2021/06/15 14:01:14;;;;;;;6.53;5.30;;;29.30;47.30;;;;;;5020414;28;20214;-50
2021/06/15 14:03:40;;;;;;;5.63;5.13;;;29.30;46.40;;;;;;5022096;28;20212;-50
2021/06/15 14:06:07;;;;;;;6.73;5.20;;;29.30;46.70;;;;;;5018627;28;20212;-50
2021/06/15 14:08:34;;;;;;;5.60;4.80;;;29.30;47.30;;;;;;5024930;28;20208;-49
2021/06/15 14:11:01;;;;;;;6.60;6.00;;;29.20;47.20;;;;;;5023873;28;20212;-49
2021/06/15 14:13:27;;;;;;;6.00;5.40;;;29.20;46.90;;;;;;5022425;28;20218;-49
2021/06/15 14:15:54;;;;;;;6.40;5.90;;;29.20;46.80;;;;;;5021355;28;20205;-49
2021/06/15 14:18:21;;;;;;;6.00;4.93;;;29.10;48.20;;;;;;5006721;28;20319;-49
2021/06/15 14:20:48;;;;;;;6.10;5.50;;;29.10;48.00;;;;;;5020484;28;20208;-49